createdAt,value
2022-12-04T00:00:10.797Z,55.42
2022-12-04T00:02:37.637Z,53.00
2022-12-04T00:05:06.202Z,46.80
2022-12-04T00:07:33.169Z,52.45
2022-12-04T00:10:00.128Z,57.33
2022-12-04T00:12:27.306Z,51.65
2022-12-04T00:15:24.675Z,43.22
2022-12-04T00:17:40.766Z,54.63
2022-12-04T00:20:08.216Z,47.13
2022-12-04T00:22:35.452Z,49.38
2022-12-04T00:25:02.294Z,45.90
2022-12-04T00:27:28.999Z,50.90
2022-12-04T00:29:56.002Z,49.35
2022-12-04T00:32:22.977Z,50.28
2022-12-04T00:34:53.098Z,49.10
2022-12-04T00:37:19.822Z,49.03
2022-12-04T00:39:46.545Z,41.75
2022-12-04T00:42:13.388Z,51.35
2022-12-04T00:44:40.130Z,53.72
2022-12-04T00:47:06.882Z,49.88
2022-12-04T00:49:33.654Z,46.22
2022-12-04T00:52:00.377Z,49.60
2022-12-04T00:54:27.076Z,47.90
2022-12-04T00:56:53.824Z,45.40
2022-12-04T00:59:20.602Z,50.45
2022-12-04T01:01:47.361Z,47.28
2022-12-04T01:04:14.145Z,49.08
2022-12-04T01:06:40.872Z,46.67
2022-12-04T01:09:07.669Z,51.50
2022-12-04T01:11:34.455Z,52.08
2022-12-04T01:14:01.281Z,53.03
2022-12-04T01:16:37.332Z,46.08
2022-12-04T01:19:06.714Z,50.60
2022-12-04T01:21:33.851Z,46.47
2022-12-04T01:24:00.790Z,45.50
2022-12-04T01:26:28.216Z,46.92
2022-12-04T01:28:54.997Z,45.40
2022-12-04T01:31:23.148Z,51.15
2022-12-04T01:33:50.980Z,40.47
2022-12-04T01:36:21.279Z,53.72
2022-12-04T01:38:48.193Z,46.70
2022-12-04T01:41:16.845Z,42.88
2022-12-04T01:43:43.698Z,42.55
2022-12-04T01:46:10.974Z,45.70
2022-12-04T01:48:39.258Z,43.40
2022-12-04T01:51:24.717Z,41.40
2022-12-04T01:53:59.222Z,46.00
2022-12-04T01:56:37.212Z,43.65
2022-12-04T01:59:06.618Z,43.78
2022-12-04T02:01:40.408Z,39.47
2022-12-04T02:04:07.454Z,34.05
2022-12-04T02:06:34.219Z,38.22
2022-12-04T02:09:01.434Z,41.00
2022-12-04T02:11:44.188Z,53.70
2022-12-04T02:14:37.578Z,47.63
2022-12-04T02:17:22.352Z,39.50
2022-12-04T02:20:00.337Z,36.22
2022-12-04T02:22:38.777Z,39.60
2022-12-04T02:25:27.963Z,41.75
2022-12-04T02:28:18.114Z,43.80
2022-12-04T02:30:45.748Z,40.53
2022-12-04T02:33:30.401Z,42.40
2022-12-04T02:36:15.062Z,38.58
2022-12-04T02:38:57.170Z,45.33
2022-12-04T02:41:30.894Z,38.28
2022-12-04T02:44:20.179Z,36.67
2022-12-04T02:46:49.924Z,39.22
2022-12-04T02:49:27.197Z,43.63
2022-12-04T02:51:57.129Z,38.42
2022-12-04T02:54:33.738Z,35.00
2022-12-04T02:57:03.687Z,38.25
2022-12-04T02:59:42.501Z,37.70
2022-12-04T03:02:35.195Z,42.90
2022-12-04T03:05:10.226Z,42.40
2022-12-04T03:07:43.814Z,40.65
2022-12-04T03:10:17.360Z,41.13
2022-12-04T03:12:50.755Z,38.75
2022-12-04T03:15:28.161Z,32.67
2022-12-04T03:18:20.561Z,40.95
2022-12-04T03:20:52.854Z,45.50
2022-12-04T03:23:55.073Z,38.67
2022-12-04T03:26:43.702Z,38.83
2022-12-04T03:29:39.789Z,37.60
2022-12-04T03:32:24.110Z,36.28
2022-12-04T03:34:56.665Z,45.58
2022-12-04T03:37:32.459Z,39.33
2022-12-04T03:40:09.039Z,38.83
2022-12-04T03:42:48.167Z,35.03
2022-12-04T03:45:27.841Z,45.30
2022-12-04T03:48:04.049Z,44.85
2022-12-04T03:50:41.860Z,42.70
2022-12-04T03:53:15.841Z,39.92
2022-12-04T03:56:07.451Z,41.30
2022-12-04T03:58:38.204Z,40.05
2022-12-04T04:01:10.169Z,46.47
2022-12-04T04:03:45.837Z,43.47
2022-12-04T04:06:26.529Z,43.05
2022-12-04T04:08:58.314Z,40.28
2022-12-04T04:11:51.004Z,46.55
2022-12-04T04:14:42.928Z,37.78
2022-12-04T04:17:39.481Z,43.08
2022-12-04T04:20:30.832Z,42.95
2022-12-04T04:23:19.260Z,42.65
2022-12-04T04:25:47.222Z,40.58
2022-12-04T04:28:34.493Z,45.67
2022-12-04T04:31:10.217Z,40.30
2022-12-04T04:33:51.359Z,53.45
2022-12-04T04:36:54.080Z,47.90
2022-12-04T04:39:23.925Z,41.90
2022-12-04T04:42:07.531Z,43.80
2022-12-04T04:45:00.424Z,57.67
2022-12-04T04:47:44.870Z,44.80
2022-12-04T04:50:13.848Z,46.03
2022-12-04T04:52:46.382Z,44.92
2022-12-04T04:55:14.742Z,49.50
2022-12-04T04:57:41.490Z,44.47
2022-12-04T05:00:12.078Z,53.50
2022-12-04T05:02:39.158Z,45.65
2022-12-04T05:05:06.588Z,55.83
2022-12-04T05:07:33.368Z,42.72
2022-12-04T05:10:00.166Z,48.15
2022-12-04T05:12:26.951Z,45.08
2022-12-04T05:14:53.660Z,40.97
2022-12-04T05:17:20.380Z,43.08
2022-12-04T05:19:57.410Z,53.75
2022-12-04T05:22:28.626Z,45.72
2022-12-04T05:24:55.962Z,43.33
2022-12-04T05:27:23.785Z,45.20
2022-12-04T05:29:56.421Z,45.42
2022-12-04T05:32:25.182Z,41.97
2022-12-04T05:34:53.749Z,37.42
2022-12-04T05:37:21.018Z,43.83
2022-12-04T05:39:48.087Z,50.53
2022-12-04T05:42:15.409Z,37.55
2022-12-04T05:44:42.074Z,45.15
2022-12-04T05:47:08.980Z,42.13
2022-12-04T05:49:35.877Z,41.25
2022-12-04T05:52:05.002Z,38.70
2022-12-04T05:54:32.236Z,45.28
2022-12-04T05:56:59.179Z,36.63
2022-12-04T05:59:25.954Z,44.60
2022-12-04T06:01:52.762Z,47.38
2022-12-04T06:04:19.535Z,38.53
2022-12-04T06:06:46.422Z,39.92
2022-12-04T06:09:13.218Z,44.85
2022-12-04T06:11:41.577Z,37.92
2022-12-04T06:14:11.181Z,36.67
2022-12-04T06:16:40.990Z,40.45
2022-12-04T06:19:11.194Z,35.88
2022-12-04T06:21:39.849Z,35.08
2022-12-04T06:24:08.638Z,37.80
2022-12-04T06:26:35.389Z,35.30
2022-12-04T06:29:02.200Z,44.50
2022-12-04T06:31:29.919Z,37.65
2022-12-04T06:33:58.799Z,37.95
2022-12-04T06:36:26.418Z,35.38
2022-12-04T06:38:55.611Z,36.80
2022-12-04T06:41:23.141Z,36.63
2022-12-04T06:43:51.756Z,39.78
2022-12-04T06:46:21.255Z,40.40
2022-12-04T06:48:48.309Z,45.35
2022-12-04T06:51:29.167Z,46.42
2022-12-04T06:53:56.567Z,56.05
2022-12-04T06:56:26.207Z,46.95
2022-12-04T06:58:55.295Z,44.33
2022-12-04T07:01:25.704Z,41.97
2022-12-04T07:03:53.184Z,38.28
2022-12-04T07:06:29.750Z,36.97
2022-12-04T07:09:02.685Z,36.55
2022-12-04T07:11:31.837Z,31.20
2022-12-04T07:13:58.638Z,36.72
2022-12-04T07:16:26.480Z,32.60
2022-12-04T07:18:54.149Z,30.20
2022-12-04T07:21:23.541Z,30.42
2022-12-04T07:23:52.354Z,25.55
2022-12-04T07:26:19.994Z,31.92
2022-12-04T07:28:47.308Z,32.08
2022-12-04T07:31:19.396Z,32.28
2022-12-04T07:33:47.028Z,31.85
2022-12-04T07:36:16.780Z,36.50
2022-12-04T07:38:43.777Z,31.27
2022-12-04T07:41:12.736Z,32.85
2022-12-04T07:43:39.907Z,33.53
2022-12-04T07:46:13.010Z,33.78
2022-12-04T07:48:40.202Z,37.70
2022-12-04T07:51:16.228Z,29.25
2022-12-04T07:53:43.947Z,36.35
2022-12-04T07:56:12.142Z,38.30
2022-12-04T07:58:39.523Z,33.00
2022-12-04T08:01:24.975Z,29.92
2022-12-04T08:03:54.810Z,36.15
2022-12-04T08:06:23.274Z,34.40
2022-12-04T08:08:50.749Z,37.47
2022-12-04T08:11:22.180Z,37.47
2022-12-04T08:13:53.637Z,35.70
2022-12-04T08:16:20.415Z,37.30
2022-12-04T08:18:48.632Z,38.75
2022-12-04T08:21:20.564Z,32.60
2022-12-04T08:23:49.494Z,37.42
2022-12-04T08:26:17.681Z,35.85
2022-12-04T08:28:44.539Z,42.25
2022-12-04T08:31:16.046Z,38.67
2022-12-04T08:33:43.674Z,36.90
2022-12-04T08:36:12.457Z,38.35
2022-12-04T08:38:39.466Z,39.55
2022-12-04T08:41:08.511Z,44.33
2022-12-04T08:43:35.361Z,49.58
2022-12-04T08:46:04.306Z,44.60
2022-12-04T08:48:31.422Z,43.88
2022-12-04T08:50:58.453Z,43.13
2022-12-04T08:53:25.352Z,48.42
2022-12-04T08:55:52.689Z,44.38
2022-12-04T08:58:20.471Z,44.90
2022-12-04T09:00:47.715Z,46.78
2022-12-04T09:03:17.194Z,41.40
2022-12-04T09:05:45.985Z,40.42
2022-12-04T09:08:16.922Z,43.22
2022-12-04T09:10:44.401Z,33.08
2022-12-04T09:13:11.341Z,36.10
2022-12-04T09:15:41.608Z,47.53
2022-12-04T09:18:09.244Z,32.47
2022-12-04T09:20:36.789Z,38.13
2022-12-04T09:23:05.566Z,36.85
2022-12-04T09:25:36.509Z,30.55
2022-12-04T09:28:04.196Z,32.53
2022-12-04T09:30:31.119Z,29.92
2022-12-04T09:32:57.868Z,29.40
2022-12-04T09:35:24.623Z,34.40
2022-12-04T09:37:51.405Z,31.38
2022-12-04T09:40:39.449Z,32.47
2022-12-04T09:43:41.334Z,27.23
2022-12-04T09:46:18.855Z,35.42
2022-12-04T09:48:48.712Z,34.17
2022-12-04T09:51:20.141Z,41.42
2022-12-04T09:54:03.085Z,26.88
2022-12-04T09:56:32.189Z,32.00
2022-12-04T09:59:10.238Z,35.70
2022-12-04T10:02:12.394Z,34.75
2022-12-04T10:04:39.217Z,30.42
2022-12-04T10:07:14.820Z,32.22
2022-12-04T10:09:59.383Z,27.55
2022-12-04T10:12:36.905Z,27.85
2022-12-04T10:15:21.779Z,38.47
2022-12-04T10:18:10.023Z,29.23
2022-12-04T10:20:46.811Z,33.83
2022-12-04T10:23:25.446Z,27.80
2022-12-04T10:25:55.178Z,27.23
2022-12-04T10:28:31.366Z,24.25
2022-12-04T10:31:01.427Z,29.73
2022-12-04T10:33:39.574Z,27.45
2022-12-04T10:36:07.241Z,30.52
2022-12-04T10:38:53.049Z,26.25
2022-12-04T10:41:38.066Z,28.50
2022-12-04T10:44:04.860Z,39.63
2022-12-04T10:46:34.352Z,34.03
2022-12-04T10:49:03.256Z,31.65
2022-12-04T10:51:38.155Z,25.40
2022-12-04T10:54:42.912Z,26.83
2022-12-04T10:57:11.777Z,25.75
2022-12-04T10:59:56.099Z,24.95
2022-12-04T11:02:27.249Z,25.45
2022-12-04T11:05:00.372Z,28.55
2022-12-04T11:07:36.249Z,27.20
2022-12-04T11:10:22.645Z,27.67
2022-12-04T11:12:55.934Z,32.08
2022-12-04T11:15:23.345Z,27.17
2022-12-04T11:17:52.773Z,29.05
2022-12-04T11:20:21.412Z,29.25
2022-12-04T11:22:59.788Z,25.25
2022-12-04T11:25:30.820Z,27.85
2022-12-04T11:28:02.419Z,25.98
2022-12-04T11:30:38.237Z,33.72
2022-12-04T11:33:08.035Z,28.95
2022-12-04T11:35:34.897Z,29.05
2022-12-04T11:38:13.246Z,32.70
2022-12-04T11:40:45.467Z,31.75
2022-12-04T11:43:17.989Z,29.10
2022-12-04T11:46:03.044Z,29.52
2022-12-04T11:48:31.989Z,27.63
2022-12-04T11:51:51.814Z,34.35
2022-12-04T11:54:39.512Z,29.02
2022-12-04T11:57:33.907Z,27.38
2022-12-04T12:00:09.219Z,24.08
2022-12-04T12:03:15.062Z,24.88
2022-12-04T12:06:00.434Z,28.13
2022-12-04T12:08:46.014Z,24.33
2022-12-04T12:11:24.751Z,25.73
2022-12-04T12:14:14.439Z,26.25
2022-12-04T12:16:48.550Z,22.30
2022-12-04T12:19:41.270Z,33.22
2022-12-04T12:22:26.177Z,28.33
2022-12-04T12:25:21.114Z,26.15
2022-12-04T12:28:16.455Z,26.40
2022-12-04T12:31:05.945Z,22.42
2022-12-04T12:33:58.941Z,24.58
2022-12-04T12:36:30.502Z,21.77
2022-12-04T12:39:07.202Z,24.92
2022-12-04T12:41:53.057Z,26.98
2022-12-04T12:44:27.317Z,17.55
2022-12-04T12:46:59.334Z,21.38
2022-12-04T12:49:41.720Z,21.80
2022-12-04T12:52:29.680Z,26.73
2022-12-04T12:55:04.113Z,24.27
2022-12-04T12:57:38.164Z,23.63
2022-12-04T13:00:22.675Z,24.50
2022-12-04T13:03:26.095Z,25.88
2022-12-04T13:05:59.599Z,20.02
2022-12-04T13:08:37.871Z,22.52
2022-12-04T13:11:16.066Z,20.42
2022-12-04T13:13:53.223Z,20.52
2022-12-04T13:16:28.298Z,23.25
2022-12-04T13:19:06.809Z,21.88
2022-12-04T13:21:43.982Z,20.17
2022-12-04T13:24:55.666Z,22.27
2022-12-04T13:27:37.101Z,17.65
2022-12-04T13:30:20.726Z,22.30
2022-12-04T13:33:18.404Z,21.23
2022-12-04T13:35:57.886Z,23.10
2022-12-04T13:38:33.629Z,21.42
2022-12-04T13:41:07.044Z,21.73
2022-12-04T13:43:42.770Z,25.80
2022-12-04T13:46:30.472Z,28.15
2022-12-04T13:49:15.933Z,36.75
2022-12-04T13:51:43.442Z,24.42
2022-12-04T13:54:13.252Z,26.17
2022-12-04T13:56:41.936Z,17.48
2022-12-04T13:59:26.903Z,22.05
2022-12-04T14:02:18.998Z,23.50
2022-12-04T14:04:52.836Z,26.20
2022-12-04T14:07:40.658Z,20.00
2022-12-04T14:10:26.791Z,23.65
2022-12-04T14:13:21.708Z,26.05
2022-12-04T14:15:49.068Z,26.73
2022-12-04T14:18:29.333Z,23.42
2022-12-04T14:21:05.419Z,22.00
2022-12-04T14:23:42.726Z,20.10
2022-12-04T14:27:03.166Z,25.35
2022-12-04T14:29:30.721Z,24.48
2022-12-04T14:32:08.522Z,25.05
2022-12-04T14:34:37.469Z,20.85
2022-12-04T14:37:05.811Z,24.33
2022-12-04T14:39:37.243Z,27.60
2022-12-04T14:42:24.944Z,27.95
2022-12-04T14:45:00.690Z,21.23
2022-12-04T14:47:58.187Z,23.33
2022-12-04T14:50:30.779Z,27.35
2022-12-04T14:53:03.250Z,23.40
2022-12-04T14:55:35.819Z,22.73
2022-12-04T14:58:30.166Z,26.33
2022-12-04T15:01:28.934Z,35.78
2022-12-04T15:04:00.446Z,25.75
2022-12-04T15:06:33.332Z,27.23
2022-12-04T15:09:20.874Z,30.27
2022-12-04T15:12:15.655Z,26.50
2022-12-04T15:14:50.109Z,29.88
2022-12-04T15:17:18.724Z,29.25
2022-12-04T15:19:45.952Z,35.05
2022-12-04T15:22:27.244Z,32.08
2022-12-04T15:24:55.326Z,30.38
2022-12-04T15:27:31.707Z,29.08
2022-12-04T15:30:00.789Z,27.10
2022-12-04T15:32:30.754Z,32.30
2022-12-04T15:35:09.197Z,27.40
2022-12-04T15:37:39.508Z,33.17
2022-12-04T15:40:08.656Z,32.08
2022-12-04T15:42:35.373Z,30.40
2022-12-04T15:45:08.102Z,33.33
2022-12-04T15:47:39.199Z,24.98
2022-12-04T15:50:17.960Z,24.30
2022-12-04T15:53:05.734Z,24.00
2022-12-04T15:55:49.419Z,28.40
2022-12-04T15:58:21.851Z,25.95
2022-12-04T16:00:55.432Z,29.77
2022-12-04T16:03:27.721Z,26.85
2022-12-04T16:06:13.806Z,29.88
2022-12-04T16:08:42.479Z,31.08
2022-12-04T16:11:18.069Z,29.42
2022-12-04T16:13:44.867Z,26.02
2022-12-04T16:16:23.006Z,29.85
2022-12-04T16:18:49.872Z,25.77
2022-12-04T16:21:22.361Z,28.35
2022-12-04T16:23:49.090Z,32.75
2022-12-04T16:26:20.558Z,28.02
2022-12-04T16:28:47.587Z,25.45
2022-12-04T16:31:16.114Z,27.10
2022-12-04T16:33:42.924Z,23.58
2022-12-04T16:36:11.446Z,25.30
2022-12-04T16:38:38.177Z,22.20
2022-12-04T16:41:05.848Z,24.33
2022-12-04T16:43:32.612Z,21.48
2022-12-04T16:46:01.298Z,21.55
2022-12-04T16:48:29.643Z,24.48
2022-12-04T16:50:56.463Z,20.23
2022-12-04T16:53:23.436Z,21.38
2022-12-04T16:55:51.953Z,19.30
2022-12-04T16:58:20.523Z,20.35
2022-12-04T17:00:55.103Z,22.92
2022-12-04T17:03:28.491Z,20.98
2022-12-04T17:05:55.902Z,25.90
2022-12-04T17:08:23.398Z,33.50
2022-12-04T17:10:50.494Z,17.40
2022-12-04T17:13:18.697Z,19.35
2022-12-04T17:15:45.711Z,22.38
2022-12-04T17:18:17.726Z,20.55
2022-12-04T17:20:47.467Z,23.85
2022-12-04T17:23:14.331Z,24.25
2022-12-04T17:25:41.139Z,22.33
2022-12-04T17:28:08.275Z,21.67
2022-12-04T17:30:36.379Z,17.90
2022-12-04T17:33:04.350Z,24.40
2022-12-04T17:35:31.247Z,23.80
2022-12-04T17:38:03.928Z,31.25
2022-12-04T17:40:33.298Z,19.35
2022-12-04T17:43:00.123Z,35.55
2022-12-04T17:45:26.906Z,30.17
2022-12-04T17:47:53.625Z,29.95
2022-12-04T17:50:20.643Z,28.80
2022-12-04T17:52:47.496Z,33.88
2022-12-04T17:55:14.355Z,19.48
2022-12-04T17:57:41.079Z,24.98
2022-12-04T18:00:08.749Z,39.78
2022-12-04T18:02:36.299Z,47.97
2022-12-04T18:05:03.206Z,35.75
2022-12-04T18:07:31.470Z,27.40
2022-12-04T18:09:58.612Z,34.78
2022-12-04T18:12:25.614Z,34.78
2022-12-04T18:14:53.340Z,42.10
2022-12-04T18:17:20.931Z,25.20
2022-12-04T18:19:47.662Z,24.55
2022-12-04T18:22:14.398Z,24.60
2022-12-04T18:24:41.271Z,30.85
2022-12-04T18:27:08.575Z,32.97
2022-12-04T18:29:35.371Z,22.50
2022-12-04T18:32:02.188Z,26.92
2022-12-04T18:34:29.035Z,24.98
2022-12-04T18:36:55.775Z,27.85
2022-12-04T18:39:25.353Z,28.42
2022-12-04T18:41:55.935Z,25.25
2022-12-04T18:44:23.383Z,30.10
2022-12-04T18:46:50.224Z,37.10
2022-12-04T18:49:17.151Z,33.88
2022-12-04T18:51:49.580Z,25.63
2022-12-04T18:54:22.464Z,26.92
2022-12-04T18:56:49.744Z,32.10
2022-12-04T18:59:21.935Z,35.30
2022-12-04T19:01:50.399Z,32.60
2022-12-04T19:04:19.379Z,54.55
2022-12-04T19:06:51.908Z,43.17
2022-12-04T19:09:40.734Z,42.40
2022-12-04T19:12:11.547Z,35.55
2022-12-04T19:14:39.764Z,34.42
2022-12-04T19:17:06.967Z,27.77
2022-12-04T19:19:33.787Z,34.35
2022-12-04T19:22:02.085Z,35.28
2022-12-04T19:24:28.989Z,36.95
2022-12-04T19:26:55.790Z,35.42
2022-12-04T19:29:22.575Z,36.92
2022-12-04T19:31:50.768Z,37.20
2022-12-04T19:34:19.154Z,38.78
2022-12-04T19:36:46.081Z,33.20
2022-12-04T19:39:12.880Z,38.00
2022-12-04T19:41:41.318Z,34.72
2022-12-04T19:44:46.670Z,39.88
2022-12-04T19:46:58.698Z,34.55
2022-12-04T19:49:25.603Z,31.40
2022-12-04T19:51:52.401Z,31.48
2022-12-04T19:54:19.301Z,30.13
2022-12-04T19:56:50.993Z,31.10
2022-12-04T19:59:19.614Z,31.95
2022-12-04T20:01:46.598Z,33.70
2022-12-04T20:04:13.433Z,30.25
2022-12-04T20:06:43.048Z,30.90
2022-12-04T20:09:14.226Z,29.05
2022-12-04T20:11:41.433Z,35.47
2022-12-04T20:14:08.597Z,35.50
2022-12-04T20:16:36.897Z,30.90
2022-12-04T20:19:06.209Z,34.25
2022-12-04T20:21:33.203Z,32.53
2022-12-04T20:24:06.458Z,30.27
2022-12-04T20:26:37.302Z,25.88
2022-12-04T20:29:05.609Z,31.90
2022-12-04T20:31:37.843Z,33.22
2022-12-04T20:34:06.931Z,37.47
2022-12-04T20:36:37.606Z,25.30
2022-12-04T20:39:05.314Z,29.23
2022-12-04T20:41:33.255Z,28.88
2022-12-04T20:44:01.968Z,28.23
2022-12-04T20:46:32.238Z,25.00
2022-12-04T20:49:00.950Z,26.95
2022-12-04T20:51:31.489Z,25.77
2022-12-04T20:53:59.328Z,31.30
2022-12-04T20:56:31.195Z,32.83
2022-12-04T20:59:00.468Z,27.02
2022-12-04T21:01:28.260Z,28.00
2022-12-04T21:03:55.162Z,30.25
2022-12-04T21:06:34.859Z,24.48
2022-12-04T21:09:05.950Z,24.33
2022-12-04T21:12:00.610Z,21.95
2022-12-04T21:14:49.175Z,22.83
2022-12-04T21:17:18.917Z,24.63
2022-12-04T21:19:47.799Z,28.00
2022-12-04T21:22:14.605Z,22.25
2022-12-04T21:24:42.199Z,31.13
2022-12-04T21:27:10.994Z,30.50
2022-12-04T21:29:40.099Z,20.33
2022-12-04T21:32:07.251Z,21.88
2022-12-04T21:34:34.255Z,22.02
2022-12-04T21:37:01.042Z,24.52
2022-12-04T21:39:27.860Z,23.05
2022-12-04T21:42:13.411Z,17.90
2022-12-04T21:44:40.288Z,18.15
2022-12-04T21:47:07.070Z,15.05
2022-12-04T21:49:33.878Z,17.38
2022-12-04T21:52:00.613Z,19.30
2022-12-04T21:54:28.462Z,19.25
2022-12-04T21:56:56.070Z,20.30
2022-12-04T21:59:23.403Z,17.42
2022-12-04T22:01:50.262Z,17.40
2022-12-04T22:04:17.055Z,19.35
2022-12-04T22:06:43.941Z,20.02
2022-12-04T22:09:12.675Z,25.75
2022-12-04T22:11:43.648Z,18.88
2022-12-04T22:14:11.447Z,17.85
2022-12-04T22:16:42.519Z,16.17
2022-12-04T22:19:11.557Z,18.45
2022-12-04T22:21:38.792Z,16.70
2022-12-04T22:24:06.103Z,20.90
2022-12-04T22:26:33.365Z,18.88
2022-12-04T22:29:00.138Z,14.93
2022-12-04T22:31:28.536Z,18.33
2022-12-04T22:33:57.437Z,16.63
2022-12-04T22:36:30.771Z,20.20
2022-12-04T22:39:12.918Z,23.23
2022-12-04T22:41:39.707Z,20.45
2022-12-04T22:44:06.470Z,21.67
2022-12-04T22:46:33.453Z,23.58
2022-12-04T22:49:00.578Z,19.95
2022-12-04T22:51:27.778Z,24.27
2022-12-04T22:53:56.882Z,18.92
2022-12-04T22:56:26.772Z,22.63
2022-12-04T22:58:54.678Z,19.52
2022-12-04T23:01:30.363Z,22.55
2022-12-04T23:03:57.529Z,20.92
2022-12-04T23:06:26.280Z,21.02
2022-12-04T23:09:05.697Z,18.20
2022-12-04T23:11:32.683Z,18.90
2022-12-04T23:14:02.406Z,16.67
2022-12-04T23:16:31.458Z,18.13
2022-12-04T23:18:58.922Z,17.45
2022-12-04T23:21:26.141Z,15.27
2022-12-04T23:23:54.452Z,15.10
2022-12-04T23:26:24.898Z,15.40
2022-12-04T23:28:52.059Z,15.52
2022-12-04T23:31:19.468Z,13.00
2022-12-04T23:33:46.264Z,11.82
2022-12-04T23:36:14.040Z,13.80
2022-12-04T23:38:42.001Z,11.80
2022-12-04T23:41:11.711Z,12.75
2022-12-04T23:43:38.987Z,9.90
2022-12-04T23:46:10.953Z,17.48
2022-12-04T23:48:39.095Z,17.25
2022-12-04T23:51:06.207Z,16.92
2022-12-04T23:53:32.946Z,14.98
2022-12-04T23:56:08.353Z,13.48
2022-12-04T23:58:36.215Z,15.57
